Time;durP1;ratioP1;P1;durP2;ratioP2;P2;SDS_P1;SDS_P2;PMS_P1;PMS_P2;Temp;Humidity;BMP_temperature;BMP_pressure;BME280_temperature;BME280_humidity;BME280_pressure;Samples;Min_cycle;Max_cycle;Signal;HPM_P1;HPM_P2
2023/05/31 00:01:54;;;;;;;8.83;4.37;;;;;;;8.56;100.00;102199.81;5011120;28;20056;-75
2023/05/31 00:04:19;;;;;;;11.60;5.28;;;;;;;8.51;100.00;102199.31;5003038;28;20036;-74
2023/05/31 00:06:44;;;;;;;12.33;5.13;;;;;;;8.54;100.00;102224.84;5003442;28;20022;-75
2023/05/31 00:09:10;;;;;;;10.30;4.80;;;;;;;8.47;100.00;102232.44;5003353;28;20048;-75
2023/05/31 00:11:35;;;;;;;11.30;5.00;;;;;;;8.39;100.00;102227.66;5004719;28;20021;-74
2023/05/31 00:14:01;;;;;;;14.17;5.57;;;;;;;8.34;100.00;102224.47;5000717;28;20040;-74
2023/05/31 00:16:26;;;;;;;10.57;5.10;;;;;;;8.35;100.00;102220.00;4987140;28;20030;-75
2023/05/31 00:18:51;;;;;;;7.67;4.30;;;;;;;8.37;100.00;102226.06;5004321;28;20037;-75
2023/05/31 00:21:17;;;;;;;16.60;5.33;;;;;;;8.39;100.00;102224.97;5004782;28;20490;-75
2023/05/31 00:23:42;;;;;;;15.97;7.40;;;;;;;8.42;100.00;102232.78;4986148;28;20037;-74
2023/05/31 00:26:07;;;;;;;12.20;5.73;;;;;;;8.41;100.00;102248.88;5001271;28;20022;-75
2023/05/31 00:28:33;;;;;;;9.13;4.53;;;;;;;8.31;100.00;102230.03;4999024;28;20394;-74
2023/05/31 00:30:58;;;;;;;13.70;5.47;;;;;;;8.27;100.00;102223.22;5003256;28;20390;-74
2023/05/31 00:33:23;;;;;;;13.53;6.87;;;;;;;8.29;100.00;102239.06;5019379;28;20483;-74
2023/05/31 00:35:49;;;;;;;9.55;5.03;;;;;;;8.18;100.00;102237.19;5019696;28;20132;-74
2023/05/31 00:38:15;;;;;;;7.43;4.87;;;;;;;8.12;100.00;102230.47;5003037;28;20034;-74
2023/05/31 00:40:40;;;;;;;11.50;5.27;;;;;;;8.13;100.00;102231.34;5003593;28;20029;-74
2023/05/31 00:43:05;;;;;;;12.33;5.53;;;;;;;8.20;100.00;102237.94;5007603;28;20034;-74
2023/05/31 00:45:33;;;;;;;17.47;5.30;;;;;;;8.16;100.00;102225.81;4990135;28;20073;-74
2023/05/31 00:48:00;;;;;;;10.25;5.55;;;;;;;8.12;100.00;102221.66;5020991;28;20046;-75
2023/05/31 00:50:26;;;;;;;8.55;4.93;;;;;;;8.07;100.00;102215.81;5006743;28;20022;-74
2023/05/31 00:52:54;;;;;;;14.77;6.57;;;;;;;8.04;100.00;102216.91;5006216;28;20034;-74
2023/05/31 00:55:20;;;;;;;12.57;5.63;;;;;;;8.02;100.00;102240.94;5006758;28;20273;-75
2023/05/31 00:57:46;;;;;;;8.75;5.07;;;;;;;7.92;100.00;102226.59;5023107;28;20428;-75
2023/05/31 01:00:12;;;;;;;9.73;5.90;;;;;;;7.90;100.00;102222.34;5006752;28;20050;-75
2023/05/31 01:02:38;;;;;;;;;;;;;;;7.92;100.00;102226.59;5006708;28;20040;-74
2023/05/31 01:05:07;;;;;;;;;;;;;;;7.95;100.00;102221.06;5005834;28;20285;-74
2023/05/31 01:07:33;;;;;;;16.38;5.85;;;;;;;7.92;100.00;102220.44;5006564;28;19963;-74
2023/05/31 01:10:02;;;;;;;10.88;5.50;;;;;;;7.85;100.00;102212.06;5022803;28;20026;-74
2023/05/31 01:12:46;;;;;;;12.70;5.28;;;;;;;7.79;100.00;102209.81;4996849;28;20034;-75
2023/05/31 01:15:15;;;;;;;10.38;5.15;;;;;;;7.75;100.00;102197.69;5004031;28;20034;-74
2023/05/31 01:17:51;;;;;;;14.68;6.20;;;;;;;7.79;100.00;102200.03;5018344;28;20080;-74
2023/05/31 01:20:20;;;;;;;14.65;5.35;;;;;;;7.85;100.00;102209.38;4989966;28;20118;-74
2023/05/31 01:22:52;;;;;;;10.98;5.57;;;;;;;7.90;100.00;102233.84;5006958;28;20478;-74
2023/05/31 01:25:33;;;;;;;12.63;6.95;;;;;;;7.74;100.00;102225.25;5005708;28;20116;-75
2023/05/31 01:27:59;;;;;;;14.00;6.10;;;;;;;7.65;100.00;102218.75;4989262;28;20038;-74
2023/05/31 01:30:26;;;;;;;;;;;;;;;7.67;100.00;102224.81;5006378;28;20112;-74
2023/05/31 01:32:55;;;;;;;9.00;5.57;;;;;;;7.60;100.00;102228.88;5023260;28;19917;-75
2023/05/31 01:35:21;;;;;;;13.10;5.50;;;;;;;7.55;100.00;102221.22;5006609;28;20071;-75
2023/05/31 01:37:46;;;;;;;13.40;6.57;;;;;;;7.63;100.00;102241.09;5005619;28;20041;-74
2023/05/31 01:40:15;;;;;;;10.37;5.93;;;;;;;7.49;100.00;102228.75;5005765;28;20030;-74
2023/05/31 01:42:43;;;;;;;9.45;5.53;;;;;;;7.42;100.00;102223.00;5007677;28;20426;-75
2023/05/31 01:45:10;;;;;;;11.63;6.47;;;;;;;7.40;100.00;102216.97;4998408;28;20024;-74
2023/05/31 01:47:40;;;;;;;13.65;5.50;;;;;;;7.44;100.00;102222.91;5005605;28;20033;-75
2023/05/31 01:50:07;;;;;;;10.63;4.88;;;;;;;7.39;100.00;102207.28;5005354;28;20421;-75
2023/05/31 01:52:34;;;;;;;9.55;5.65;;;;;;;7.41;100.00;102205.38;5021654;28;20044;-74
2023/05/31 01:55:02;;;;;;;7.57;5.25;;;;;;;7.39;100.00;102200.16;5003531;28;20061;-74
2023/05/31 01:57:31;;;;;;;11.30;5.60;;;;;;;7.38;100.00;102197.63;4988942;28;20044;-74
2023/05/31 01:59:59;;;;;;;12.93;6.47;;;;;;;7.29;100.00;102185.81;5004838;28;20107;-75
2023/05/31 02:02:27;;;;;;;8.85;5.65;;;;;;;7.40;100.00;102193.06;4991727;28;20023;-75
2023/05/31 02:05:08;;;;;;;11.13;5.60;;;;;;;7.42;100.00;102207.06;5004309;28;20341;-75
2023/05/31 02:07:36;;;;;;;14.30;6.35;;;;;;;7.39;100.00;102213.44;5004948;28;20037;-74
2023/05/31 02:10:02;;;;;;;;;;;;;;;7.38;100.00;102197.63;5007054;28;20030;-75
2023/05/31 02:12:28;;;;;;;10.07;5.68;;;;;;;7.31;100.00;102199.84;5006085;28;19917;-75
2023/05/31 02:14:53;;;;;;;11.70;6.30;;;;;;;7.25;100.00;102191.44;4990878;28;20022;-74
2023/05/31 02:17:23;;;;;;;14.90;6.27;;;;;;;7.33;100.00;102211.22;5004855;28;20559;-74
2023/05/31 02:19:51;;;;;;;10.60;5.10;;;;;;;7.24;100.00;102197.72;5021316;28;20407;-75
2023/05/31 02:22:17;;;;;;;12.65;6.05;;;;;;;7.22;100.00;102183.69;5004490;28;20034;-75
2023/05/31 02:24:43;;;;;;;11.52;7.30;;;;;;;7.31;100.00;102194.53;4990647;28;20017;-74
2023/05/31 02:27:10;;;;;;;9.55;5.80;;;;;;;7.28;100.00;102205.38;5004796;28;20992;-74
2023/05/31 02:29:35;;;;;;;13.20;6.10;;;;;;;7.16;100.00;102195.59;4988349;28;20057;-75
2023/05/31 02:32:01;;;;;;;12.23;5.65;;;;;;;7.17;100.00;102189.34;5002268;28;20054;-75
2023/05/31 02:34:26;;;;;;;17.10;6.50;;;;;;;7.17;100.00;102182.19;5005726;28;20112;-75
2023/05/31 02:36:53;;;;;;;10.00;5.95;;;;;;;7.10;100.00;102183.59;5003290;28;20848;-75
2023/05/31 02:39:18;;;;;;;15.60;6.43;;;;;;;7.08;100.00;102166.91;5021005;28;20014;-74
2023/05/31 02:41:44;;;;;;;10.43;5.68;;;;;;;7.07;100.00;102169.66;5021642;28;20292;-74
2023/05/31 02:44:09;;;;;;;11.80;5.93;;;;;;;7.07;100.00;102169.66;5021290;28;20026;-74
2023/05/31 02:46:35;;;;;;;16.77;7.28;;;;;;;7.13;100.00;102180.69;5021557;28;20124;-74
2023/05/31 02:49:02;;;;;;;10.57;6.25;;;;;;;7.14;100.00;102198.38;5005208;28;20034;-73
2023/05/31 02:51:27;;;;;;;17.88;7.25;;;;;;;7.05;100.00;102196.34;5005165;28;20026;-74
2023/05/31 02:54:11;;;;;;;21.65;6.93;;;;;;;6.98;100.00;102187.06;5006254;28;20036;-77
2023/05/31 02:56:37;;;;;;;13.60;6.05;;;;;;;6.98;100.00;102187.94;5021213;28;20037;-76
2023/05/31 02:59:06;;;;;;;8.55;5.72;;;;;;;6.95;100.00;102185.47;5005056;28;20062;-76
2023/05/31 03:01:39;;;;;;;10.38;5.80;;;;;;;6.92;100.00;102167.09;4989695;28;20178;-76
2023/05/31 03:04:25;;;;;;;15.38;6.30;;;;;;;6.98;100.00;102168.50;5000774;28;20040;-76
2023/05/31 03:06:52;;;;;;;16.65;6.70;;;;;;;6.99;100.00;102167.53;5004734;28;20038;-76
2023/05/31 03:09:17;;;;;;;18.75;7.18;;;;;;;6.96;100.00;102159.78;4996877;28;20091;-75
2023/05/31 03:11:44;;;;;;;16.80;8.52;;;;;;;7.05;100.00;102169.78;5004870;28;20510;-76
2023/05/31 03:14:10;;;;;;;26.05;7.45;;;;;;;7.17;100.00;102191.97;4992588;28;20319;-77
2023/05/31 03:16:45;;;;;;;19.80;7.22;;;;;;;7.10;100.00;102196.88;5006070;28;20558;-76
2023/05/31 03:19:12;;;;;;;11.65;6.35;;;;;;;7.09;100.00;102200.44;5021509;28;20065;-76
2023/05/31 03:21:38;;;;;;;12.10;6.95;;;;;;;7.05;100.00;102198.97;5020961;28;20109;-76
2023/05/31 03:24:04;;;;;;;12.30;6.38;;;;;;;7.02;100.00;102190.34;5004287;28;20141;-76
2023/05/31 03:26:31;;;;;;;13.63;6.15;;;;;;;7.00;100.00;102181.66;5004408;28;20033;-77
2023/05/31 03:28:57;;;;;;;10.18;6.53;;;;;;;7.05;100.00;102176.91;5004374;28;20061;-76
2023/05/31 03:31:22;;;;;;;16.43;7.60;;;;;;;7.16;100.00;102195.59;5021144;28;20057;-76
2023/05/31 03:33:48;;;;;;;17.13;7.57;;;;;;;7.31;100.00;102220.25;4987716;28;20038;-75
2023/05/31 03:36:13;;;;;;;10.70;6.32;;;;;;;7.24;100.00;102226.94;5020894;28;20479;-76
2023/05/31 03:38:39;;;;;;;14.43;6.53;;;;;;;7.18;100.00;102226.38;4988156;28;20037;-76
2023/05/31 03:41:04;;;;;;;15.20;7.77;;;;;;;7.24;100.00;102234.91;5004492;28;20026;-76
2023/05/31 03:43:30;;;;;;;13.90;6.67;;;;;;;7.28;100.00;102234.63;5005306;28;20503;-75
2023/05/31 03:46:00;;;;;;;14.37;6.77;;;;;;;7.31;100.00;102234.38;4987929;28;20272;-76
2023/05/31 03:48:27;;;;;;;11.98;6.60;;;;;;;7.31;100.00;102229.06;5004324;28;20134;-77
2023/05/31 03:50:52;;;;;;;16.63;7.20;;;;;;;7.44;100.00;102223.75;5014340;28;20026;-76
2023/05/31 03:53:18;;;;;;;18.67;9.03;;;;;;;7.54;100.00;102219.53;5018676;28;20045;-76
2023/05/31 03:55:43;;;;;;;14.70;8.47;;;;;;;7.68;100.00;102225.66;4987464;28;20272;-74
2023/05/31 03:58:08;;;;;;;17.88;8.20;;;;;;;7.82;100.00;102241.53;5020635;28;20888;-75
2023/05/31 04:00:37;;;;;;;14.20;7.90;;;;;;;7.88;100.00;102241.06;5015220;28;20030;-74
2023/05/31 04:03:03;;;;;;;12.80;7.30;;;;;;;8.00;100.00;102237.53;5003609;28;20038;-74
2023/05/31 04:05:29;;;;;;;14.20;7.68;;;;;;;8.17;100.00;102231.03;5004192;28;20018;-75
2023/05/31 04:07:55;;;;;;;13.15;6.30;;;;;;;8.26;100.00;102229.50;5004129;28;20499;-75
2023/05/31 04:10:20;;;;;;;12.80;6.53;;;;;;;8.36;100.00;102213.72;5004279;28;20025;-75
2023/05/31 04:12:46;;;;;;;11.40;6.68;;;;;;;8.48;100.00;102196.03;5003876;28;20452;-75
2023/05/31 04:15:11;;;;;;;18.57;6.67;;;;;;;8.69;100.00;102197.09;4987772;28;20080;-75
2023/05/31 04:17:36;;;;;;;13.57;6.60;;;;;;;8.86;100.00;102193.16;5007605;28;20668;-75
2023/05/31 04:20:07;;;;;;;14.17;7.60;;;;;;;9.05;100.00;102192.63;5009012;28;20036;-75
2023/05/31 04:22:33;;;;;;;13.80;7.47;;;;;;;9.32;100.00;102196.78;4991542;28;20034;-75
2023/05/31 04:24:58;;;;;;;22.13;9.88;;;;;;;9.64;100.00;102221.78;5007279;28;20538;-74
2023/05/31 04:27:32;;;;;;;16.90;8.95;;;;;;;9.73;100.00;102239.72;5024056;28;20116;-74
2023/05/31 04:29:58;;;;;;;17.80;8.50;;;;;;;9.89;100.00;102249.19;5024144;28;20033;-74
2023/05/31 04:32:24;;;;;;;15.00;9.23;;;;;;;10.17;100.00;102263.84;5021608;28;20576;-74
2023/05/31 04:34:52;;;;;;;17.05;9.40;;;;;;;10.26;100.00;102264.94;5007196;28;20517;-73
2023/05/31 04:37:18;;;;;;;17.33;8.23;;;;;;;10.40;100.00;102246.03;4991293;28;20387;-74
2023/05/31 04:39:44;;;;;;;11.15;6.88;;;;;;;10.61;100.00;102250.59;4991186;28;20874;-75
2023/05/31 04:42:11;;;;;;;10.30;6.90;;;;;;;10.80;100.00;102240.06;4995256;28;20045;-74
2023/05/31 04:44:38;;;;;;;11.68;7.32;;;;;;;10.96;100.00;102227.13;5003339;28;20018;-74
2023/05/31 04:47:04;;;;;;;13.95;7.38;;;;;;;11.07;100.00;102214.66;4990682;28;20465;-74
2023/05/31 04:49:30;;;;;;;12.60;7.70;;;;;;;11.22;100.00;102196.50;5007483;28;20046;-74
2023/05/31 04:51:56;;;;;;;13.60;6.35;;;;;;;11.37;100.00;102193.34;4990974;28;20506;-75
2023/05/31 04:54:21;;;;;;;;;;;;;;;11.52;100.00;102188.50;5007309;28;20034;-75
2023/05/31 04:56:47;;;;;;;;;;;;;;;11.75;100.00;102196.31;5023918;28;19971;-75
2023/05/31 04:59:13;;;;;;;10.27;5.90;;;;;;;11.90;100.00;102191.50;5008544;28;19913;-75
2023/05/31 05:01:39;;;;;;;12.90;6.90;;;;;;;11.95;100.00;102179.41;5006746;28;20273;-75
2023/05/31 05:04:08;;;;;;;9.80;6.30;;;;;;;12.21;100.00;102193.13;5005631;28;20269;-75
2023/05/31 05:06:37;;;;;;;13.30;7.30;;;;;;;12.24;100.00;102184.81;4990794;28;20375;-75
2023/05/31 05:09:03;;;;;;;13.82;7.15;;;;;;;12.27;100.00;102188.19;4990574;28;20048;-75
2023/05/31 05:11:30;;;;;;;11.45;6.70;;;;;;;12.54;100.00;102196.41;4994896;28;20056;-75
2023/05/31 05:13:56;;;;;;;16.67;7.17;;;;;;;12.90;100.00;102204.75;5005258;28;20487;-76
2023/05/31 05:16:23;;;;;;;11.95;6.20;;;;;;;13.31;100.00;102226.84;5021391;28;20123;-76
2023/05/31 05:18:49;;;;;;;13.23;7.37;;;;;;;13.33;100.00;102187.34;5014626;28;20128;-75
2023/05/31 05:21:15;;;;;;;9.27;6.25;;;;;;;13.51;100.00;102153.38;4992250;28;20028;-76
2023/05/31 05:23:42;;;;;;;14.25;6.40;;;;;;;14.00;100.00;102157.66;5023999;28;20397;-76
2023/05/31 05:26:07;;;;;;;;;;;;;;;14.50;100.00;102122.22;5008222;28;20037;-76
2023/05/31 05:28:33;;;;;;;;;;;;;;;15.05;100.00;102094.25;4990833;28;20278;-76
2023/05/31 05:30:58;;;;;;;9.43;4.60;;;;;;;15.68;100.00;102036.50;5004926;28;20377;-76
2023/05/31 05:33:26;;;;;;;11.18;5.10;;;;;;;16.33;100.00;101922.56;5005365;28;20281;-76
2023/05/31 05:35:51;;;;;;;6.25;4.55;;;;;;;17.37;100.00;101839.66;4989568;28;20499;-76
2023/05/31 05:38:17;;;;;;;9.35;4.88;;;;;;;17.91;100.00;101661.22;4989744;28;20096;-76
2023/05/31 05:40:42;;;;;;;12.57;5.22;;;;;;;18.57;100.00;101566.50;5004988;28;20026;-78
2023/05/31 05:43:08;;;;;;;11.53;5.23;;;;;;;19.24;100.00;101456.81;4989348;28;20053;-77
2023/05/31 05:45:43;;;;;;;8.25;4.70;;;;;;;19.68;100.00;101221.72;4998809;28;20085;-76
2023/05/31 05:48:08;;;;;;;7.20;3.87;;;;;;;20.08;100.00;101219.75;4989905;28;20444;-77
2023/05/31 05:50:34;;;;;;;9.63;4.55;;;;;;;19.98;100.00;101043.25;4989295;28;20121;-77
2023/05/31 05:52:59;;;;;;;7.90;4.17;;;;;;;20.58;100.00;101013.84;5003267;28;20034;-78
2023/05/31 05:55:26;;;;;;;8.10;3.15;;;;;;;21.13;100.00;100874.63;4989083;28;20022;-77
2023/05/31 05:57:52;;;;;;;9.55;4.28;;;;;;;19.79;99.92;100747.88;5012485;28;20084;-77
2023/05/31 06:00:37;;;;;;;;;;;;;;;20.32;98.52;100900.16;4986004;28;20073;-76
2023/05/31 06:03:04;;;;;;;7.13;3.25;;;;;;;20.34;95.54;100827.56;5004807;28;19971;-77
2023/05/31 06:05:29;;;;;;;9.32;4.50;;;;;;;19.38;97.27;100918.94;4998517;28;20022;-77
2023/05/31 06:07:54;;;;;;;11.67;4.27;;;;;;;20.15;96.49;101036.25;4987955;28;20050;-77
2023/05/31 06:10:20;;;;;;;8.10;3.53;;;;;;;21.00;90.31;100826.81;4993295;28;20014;-77
2023/05/31 06:12:45;;;;;;;6.67;3.63;;;;;;;21.39;85.65;100666.22;5000746;28;20037;-77
2023/05/31 06:15:15;;;;;;;8.80;4.40;;;;;;;20.81;85.14;100674.06;5004757;28;20490;-77
2023/05/31 06:17:41;;;;;;;;;;;;;;;20.38;84.26;100572.03;4989118;28;20031;-76
2023/05/31 06:20:08;;;;;;;7.03;3.80;;;;;;;20.76;83.71;100724.63;5002684;28;19956;-77
2023/05/31 06:22:33;;;;;;;9.35;3.92;;;;;;;20.59;86.26;100958.53;4999111;28;20034;-77
2023/05/31 06:24:59;;;;;;;11.10;4.73;;;;;;;20.76;83.92;100822.31;5021106;28;20493;-77
2023/05/31 06:27:25;;;;;;;8.20;4.00;;;;;;;21.03;82.21;100791.03;5004766;28;20045;-77
2023/05/31 06:29:57;;;;;;;7.85;4.05;;;;;;;20.23;83.35;100812.88;4988598;28;20272;-77
2023/05/31 06:32:30;;;;;;;9.43;3.35;;;;;;;20.82;80.76;100784.25;5004719;28;20136;-76
2023/05/31 06:34:56;;;;;;;7.38;3.10;;;;;;;21.05;79.69;100817.97;4987567;28;20395;-77
2023/05/31 06:37:22;;;;;;;11.13;3.35;;;;;;;21.02;80.18;100895.22;5004702;28;20026;-76
2023/05/31 06:39:48;;;;;;;7.17;2.87;;;;;;;20.47;77.78;100631.34;5004950;28;20048;-76
2023/05/31 06:42:15;;;;;;;7.00;3.08;;;;;;;20.63;78.51;100824.13;5004354;28;20116;-76
2023/05/31 06:45:17;;;;;;;8.18;4.05;;;;;;;21.10;78.25;100928.56;4995408;28;20026;-76
2023/05/31 06:47:48;;;;;;;5.63;2.88;;;;;;;21.15;77.56;100890.72;5005646;28;20042;-76
2023/05/31 06:50:14;;;;;;;10.20;3.93;;;;;;;19.97;79.20;100857.31;5004564;28;20679;-76
2023/05/31 06:52:45;;;;;;;9.00;3.75;;;;;;;20.65;79.63;101057.19;5002731;28;20017;-76
2023/05/31 06:55:29;;;;;;;10.25;4.28;;;;;;;20.09;80.27;101047.97;5017853;28;20573;-76
2023/05/31 06:57:55;;;;;;;8.18;3.20;;;;;;;20.08;80.86;101089.66;5004287;28;20033;-76
2023/05/31 07:00:21;;;;;;;5.33;2.60;;;;;;;20.69;78.90;101085.53;5004307;28;20032;-74
2023/05/31 07:02:47;;;;;;;6.72;3.42;;;;;;;19.78;78.30;100859.13;5010925;28;20061;-75
2023/05/31 07:05:12;;;;;;;6.03;2.92;;;;;;;19.85;79.13;101017.03;4987563;28;20057;-75
2023/05/31 07:07:37;;;;;;;6.30;2.83;;;;;;;20.52;77.57;101022.84;5004199;28;20033;-75
2023/05/31 07:10:03;;;;;;;8.00;3.37;;;;;;;20.98;76.16;100989.03;5003739;28;20030;-76
2023/05/31 07:12:29;;;;;;;13.50;3.72;;;;;;;20.49;77.15;100973.66;5003669;28;20522;-77
2023/05/31 07:14:54;;;;;;;7.37;3.00;;;;;;;20.51;76.71;100971.50;4988616;28;20030;-78
2023/05/31 07:17:21;;;;;;;7.60;3.20;;;;;;;21.29;74.31;100957.34;5003675;28;20029;-77
2023/05/31 07:19:47;;;;;;;7.00;2.53;;;;;;;21.49;74.03;101009.56;4985812;28;20514;-77
2023/05/31 07:22:17;;;;;;;5.60;2.72;;;;;;;21.93;73.39;101071.88;5004958;28;20287;-77
2023/05/31 07:24:43;;;;;;;6.88;2.92;;;;;;;21.18;71.94;100741.75;5004717;28;20021;-77
2023/05/31 07:27:09;;;;;;;10.60;3.50;;;;;;;20.68;73.99;100928.41;4998432;28;20409;-74
2023/05/31 07:29:36;;;;;;;9.48;3.28;;;;;;;21.59;73.28;101086.97;5001973;28;20529;-75
2023/05/31 07:32:01;;;;;;;;;;;;;;;21.58;73.42;101064.38;5001863;28;20029;-75
2023/05/31 07:34:27;;;;;;;8.43;4.25;;;;;;;21.62;70.64;100803.97;5003338;28;20259;-74
2023/05/31 07:36:52;;;;;;;7.00;2.50;;;;;;;21.17;67.96;100422.50;5004686;28;20080;-75
2023/05/31 07:39:18;;;;;;;8.27;3.05;;;;;;;21.35;69.46;100679.44;5003002;28;20362;-75
2023/05/31 07:41:43;;;;;;;6.60;3.60;;;;;;;21.16;66.88;100354.88;5004492;28;20822;-74
2023/05/31 07:44:09;;;;;;;8.02;2.17;;;;;;;20.97;65.42;100210.41;5005126;28;20036;-75
2023/05/31 07:46:35;;;;;;;7.53;2.30;;;;;;;20.54;66.22;100291.22;4987235;28;20029;-75
2023/05/31 07:49:02;;;;;;;4.22;2.00;;;;;;;21.40;66.44;100576.41;5003517;28;20026;-75
2023/05/31 07:51:31;;;;;;;;;;;;;;;21.79;65.49;100559.53;5024094;28;20117;-74
2023/05/31 07:53:57;;;;;;;6.85;2.40;;;;;;;22.20;64.18;100536.69;5023383;28;19917;-74
2023/05/31 07:56:22;;;;;;;7.50;2.78;;;;;;;22.13;61.05;100196.19;5024175;28;20042;-75
2023/05/31 07:58:48;;;;;;;6.10;2.40;;;;;;;22.07;60.61;100148.28;5008782;28;20108;-75
2023/05/31 08:01:13;;;;;;;9.97;2.53;;;;;;;21.44;61.84;100142.25;5008848;28;20288;-75
2023/05/31 08:03:40;;;;;;;6.28;2.30;;;;;;;21.87;62.58;100443.16;5007403;28;20549;-76
2023/05/31 08:06:06;;;;;;;7.35;2.30;;;;;;;21.58;62.22;100325.53;5008711;28;20398;-75
2023/05/31 08:08:32;;;;;;;6.00;2.28;;;;;;;22.34;60.86;100374.88;5008487;28;20021;-75
2023/05/31 08:10:58;;;;;;;5.07;2.20;;;;;;;22.54;59.07;100181.19;5008585;28;20046;-74
2023/05/31 08:13:24;;;;;;;6.68;2.80;;;;;;;22.30;60.44;100300.31;5008688;28;20026;-75
2023/05/31 08:15:49;;;;;;;10.73;3.13;;;;;;;22.37;59.47;100202.22;5008767;28;20463;-75
2023/05/31 08:18:15;;;;;;;5.80;1.92;;;;;;;22.12;58.93;100089.38;5008638;28;20030;-74
2023/05/31 08:20:40;;;;;;;10.33;3.03;;;;;;;22.68;59.74;100404.72;5008616;28;20038;-74
2023/05/31 08:23:05;;;;;;;5.13;2.20;;;;;;;22.71;58.64;100284.53;5008342;28;20272;-74
2023/05/31 08:25:31;;;;;;;8.23;2.27;;;;;;;22.97;60.36;100600.59;5023615;28;20026;-74
2023/05/31 08:27:56;;;;;;;8.57;2.63;;;;;;;23.52;58.42;100493.50;5008299;28;20380;-74
2023/05/31 08:30:21;;;;;;;6.27;2.30;;;;;;;22.72;57.54;100109.28;5007001;28;20295;-74
2023/05/31 08:32:47;;;;;;;7.07;2.40;;;;;;;23.07;58.11;100342.13;5008003;28;20065;-75
2023/05/31 08:35:12;;;;;;;6.77;2.33;;;;;;;23.21;58.68;100466.97;5008131;28;20053;-74
2023/05/31 08:37:38;;;;;;;4.57;1.90;;;;;;;22.85;58.25;100319.50;5008106;28;20022;-74
2023/05/31 08:40:05;;;;;;;3.58;1.85;;;;;;;22.44;58.17;100166.69;5007942;28;20457;-74
2023/05/31 08:42:42;;;;;;;6.25;1.95;;;;;;;23.10;57.68;100341.59;5006799;28;20072;-75
2023/05/31 08:45:09;;;;;;;4.88;2.00;;;;;;;22.06;59.30;100241.78;4999972;28;20037;-74
2023/05/31 08:47:49;;;;;;;9.55;2.92;;;;;;;22.56;60.07;100542.75;5008212;28;20658;-74
2023/05/31 08:50:16;;;;;;;8.55;2.13;;;;;;;23.46;56.74;100377.41;5000456;28;20075;-74
2023/05/31 08:52:45;;;;;;;7.07;2.10;;;;;;;23.33;56.55;100236.97;5023006;28;20036;-75
2023/05/31 08:55:11;;;;;;;5.40;1.70;;;;;;;22.53;56.45;100010.13;5000949;28;20121;-74
2023/05/31 08:57:37;;;;;;;5.22;1.70;;;;;;;23.30;56.97;100361.97;5023382;28;20109;-73
2023/05/31 09:00:10;;;;;;;;;;;;;;;23.34;57.19;100412.09;5008016;28;20345;-75
2023/05/31 09:02:37;;;;;;;3.92;1.70;;;;;;;23.16;55.97;100166.31;5021967;28;19917;-74
2023/05/31 09:05:04;;;;;;;4.72;1.48;;;;;;;23.74;55.26;100244.66;5005863;28;20018;-77
2023/05/31 09:07:30;;;;;;;5.50;1.92;;;;;;;22.91;56.76;100259.41;5007461;28;20037;-74
2023/05/31 09:09:55;;;;;;;3.72;1.35;;;;;;;23.86;56.23;100463.38;5007690;28;20022;-74
2023/05/31 09:12:21;;;;;;;4.30;1.47;;;;;;;24.08;54.28;100198.00;5006073;28;20088;-74
2023/05/31 09:14:46;;;;;;;10.05;2.65;;;;;;;23.59;56.30;100329.81;5021075;28;20045;-74
2023/05/31 09:17:12;;;;;;;6.97;1.45;;;;;;;23.01;55.37;100005.56;5007359;28;20059;-73
2023/05/31 09:19:49;;;;;;;6.68;1.58;;;;;;;23.39;55.86;100197.00;5007116;28;20034;-74
2023/05/31 09:22:15;;;;;;;6.55;1.70;;;;;;;23.79;55.47;100343.66;5000820;28;20042;-74
2023/05/31 09:24:49;;;;;;;7.13;1.70;;;;;;;23.53;54.13;100039.34;5007036;28;20067;-74
2023/05/31 09:27:14;;;;;;;4.32;1.67;;;;;;;24.53;54.50;100433.94;5001111;28;20064;-75
2023/05/31 09:29:43;;;;;;;4.00;1.50;;;;;;;25.27;52.46;100308.16;5007116;28;20026;-75
2023/05/31 09:32:09;;;;;;;3.15;1.95;;;;;;;25.38;52.43;100300.78;4998266;28;20040;-77
2023/05/31 09:34:35;;;;;;;4.50;1.52;;;;;;;25.19;51.48;100086.59;5006810;28;20087;-76
2023/05/31 09:37:01;;;;;;;6.70;1.85;;;;;;;24.63;52.70;100122.88;5007068;28;20042;-76
2023/05/31 09:39:26;;;;;;;;;;;;;;;23.78;51.97;99764.22;5022480;28;20026;-74
2023/05/31 09:41:52;;;;;;;10.27;1.60;;;;;;;23.87;52.08;99861.81;5006675;28;19923;-77
2023/05/31 09:44:18;;;;;;;3.38;1.65;;;;;;;24.43;53.61;100265.53;5005165;28;20502;-75
2023/05/31 09:46:46;;;;;;;3.38;1.40;;;;;;;24.69;52.98;100266.47;5005027;28;20418;-77
2023/05/31 09:49:12;;;;;;;9.55;2.03;;;;;;;24.33;51.69;99954.53;5006896;28;20022;-76
2023/05/31 09:51:38;;;;;;;7.25;1.60;;;;;;;24.26;51.57;99911.16;5005347;28;20045;-76
2023/05/31 09:54:13;;;;;;;3.90;1.25;;;;;;;24.79;51.20;100080.88;5004934;28;20062;-76
2023/05/31 09:56:41;;;;;;;5.20;2.00;;;;;;;24.84;51.79;100156.47;5015346;28;20563;-76
2023/05/31 09:59:07;;;;;;;5.53;1.27;;;;;;;25.02;52.19;100250.72;5006195;28;20025;-74
2023/05/31 10:01:33;;;;;;;7.50;2.33;;;;;;;25.15;50.15;99996.19;5006638;28;20044;-74
2023/05/31 10:04:03;;;;;;;;;;;;;;;25.31;50.51;100133.59;5021584;28;20373;-76
2023/05/31 10:06:28;;;;;;;4.32;1.30;;;;;;;25.58;50.53;100204.31;5006350;28;20382;-74
2023/05/31 10:08:54;;;;;;;3.97;1.60;;;;;;;24.32;49.76;99596.38;5006289;28;20092;-75
2023/05/31 10:11:26;;;;;;;5.72;1.27;;;;;;;25.00;50.77;100045.38;5021706;28;20099;-76
2023/05/31 10:13:58;;;;;;;5.53;1.42;;;;;;;25.09;50.04;99986.38;5011717;28;20041;-76
2023/05/31 10:16:26;;;;;;;5.05;1.38;;;;;;;24.63;50.20;99811.78;5006638;28;20445;-76
2023/05/31 10:18:57;;;;;;;4.57;1.50;;;;;;;24.75;49.91;99798.66;4988369;28;20030;-76
2023/05/31 10:21:25;;;;;;;8.23;1.42;;;;;;;25.44;50.10;100154.06;5004932;28;20083;-76
2023/05/31 10:24:02;;;;;;;5.20;1.42;;;;;;;25.49;49.84;100042.81;5005633;28;20101;-76
2023/05/31 10:26:37;;;;;;;3.40;1.20;;;;;;;24.95;49.42;99781.34;5005993;28;20075;-75
2023/05/31 10:29:14;;;;;;;4.93;1.25;;;;;;;24.81;49.00;99693.00;5005373;28;20347;-76
2023/05/31 10:31:49;;;;;;;4.20;1.00;;;;;;;25.66;49.09;99985.09;5006203;28;20033;-76
2023/05/31 10:34:23;;;;;;;3.10;0.90;;;;;;;26.36;47.49;100000.50;5004464;28;20038;-76
2023/05/31 10:36:49;;;;;;;5.03;1.15;;;;;;;25.68;47.69;99695.91;5004581;28;20069;-76
2023/05/31 10:39:29;;;;;;;3.55;1.17;;;;;;;25.28;47.95;99645.16;5006007;28;20014;-75
2023/05/31 10:42:21;;;;;;;6.47;1.85;;;;;;;25.02;48.73;99754.56;5004539;28;20033;-75
2023/05/31 10:45:25;;;;;;;2.97;1.10;;;;;;;25.99;47.66;99944.47;5005227;28;20030;-75
2023/05/31 10:48:09;;;;;;;2.90;0.85;;;;;;;24.89;49.05;99681.50;4977690;28;20042;-75
2023/05/31 10:50:35;;;;;;;2.30;0.88;;;;;;;25.41;47.60;99673.75;5005769;28;20506;-76
2023/05/31 10:53:11;;;;;;;3.33;1.10;;;;;;;25.76;47.51;99838.53;5003889;28;20033;-75
2023/05/31 10:55:42;;;;;;;5.45;1.05;;;;;;;25.06;47.32;99447.09;5005415;28;20292;-75
2023/05/31 10:58:25;;;;;;;9.35;1.48;;;;;;;26.06;48.50;100108.25;4997626;28;20033;-76
2023/05/31 11:00:54;;;;;;;1.83;1.13;;;;;;;25.77;47.44;99848.34;5004278;28;20395;-76
2023/05/31 11:03:27;;;;;;;4.18;1.15;;;;;;;26.14;48.08;100060.31;5005321;28;20021;-76
2023/05/31 11:05:57;;;;;;;5.32;1.50;;;;;;;26.67;47.22;100088.72;5005122;28;20034;-76
2023/05/31 11:08:23;;;;;;;7.85;1.50;;;;;;;24.98;48.21;99619.72;5005685;28;20030;-76
2023/05/31 11:10:48;;;;;;;4.70;1.40;;;;;;;25.84;47.28;99814.09;5005720;28;20029;-76
2023/05/31 11:13:14;;;;;;;5.50;1.43;;;;;;;26.51;46.96;100013.28;5005575;28;20033;-76
2023/05/31 11:15:45;;;;;;;4.03;1.33;;;;;;;24.82;46.70;99198.72;5005263;28;20108;-76
2023/05/31 11:18:20;;;;;;;7.57;1.83;;;;;;;25.83;48.25;99968.31;4997386;28;20038;-77
2023/05/31 11:20:46;;;;;;;5.85;0.90;;;;;;;24.91;47.50;99490.09;5005312;28;20206;-76
2023/05/31 11:23:27;;;;;;;3.47;1.10;;;;;;;25.49;48.43;99834.31;4987306;28;20033;-76
2023/05/31 11:26:18;;;;;;;1.05;0.85;;;;;;;26.74;47.56;100217.09;5019770;28;20288;-76
2023/05/31 11:28:59;;;;;;;4.28;1.63;;;;;;;26.88;49.17;100423.50;5003510;28;20517;-76